sensor_id;sensor_type;location;lat;lon;timestamp;P1;durP1;ratioP1;P2;durP2;ratioP2
31087;SDS011;17745;55.914;37.554;2023-07-09T04:53:38;8.80;;;4.05;;
31087;SDS011;17745;55.914;37.554;2023-07-09T04:57:07;7.15;;;3.60;;
31087;SDS011;17745;55.914;37.554;2023-07-09T05:00:12;8.45;;;3.50;;
31087;SDS011;17745;55.914;37.554;2023-07-09T05:02:56;7.20;;;3.92;;
31087;SDS011;17745;55.914;37.554;2023-07-09T05:09:38;8.07;;;3.70;;
31087;SDS011;17745;55.914;37.554;2023-07-09T05:12:47;8.18;;;3.50;;
31087;SDS011;17745;55.914;37.554;2023-07-09T05:17:52;7.68;;;3.37;;
31087;SDS011;17745;55.914;37.554;2023-07-09T05:21:07;9.55;;;3.67;;
31087;SDS011;17745;55.914;37.554;2023-07-09T05:24:32;6.22;;;3.22;;
31087;SDS011;17745;55.914;37.554;2023-07-09T05:31:42;7.40;;;3.60;;
31087;SDS011;17745;55.914;37.554;2023-07-09T05:34:51;10.18;;;3.08;;
31087;SDS011;17745;55.914;37.554;2023-07-09T05:37:22;8.07;;;3.87;;
31087;SDS011;17745;55.914;37.554;2023-07-09T06:54:10;5.37;;;3.03;;
31087;SDS011;17745;55.914;37.554;2023-07-09T07:36:55;4.95;;;2.60;;
31087;SDS011;17745;55.914;37.554;2023-07-09T07:40:56;4.60;;;2.40;;
31087;SDS011;17745;55.914;37.554;2023-07-09T07:44:02;7.25;;;2.65;;
31087;SDS011;17745;55.914;37.554;2023-07-09T07:47:09;5.30;;;3.00;;
31087;SDS011;17745;55.914;37.554;2023-07-09T07:55:20;5.57;;;2.33;;
31087;SDS011;17745;55.914;37.554;2023-07-09T07:58:21;5.03;;;2.35;;
31087;SDS011;17745;55.914;37.554;2023-07-09T08:04:29;4.87;;;2.60;;
31087;SDS011;17745;55.914;37.554;2023-07-09T08:07:47;6.20;;;2.65;;
31087;SDS011;17745;55.914;37.554;2023-07-09T08:14:12;5.10;;;2.70;;
31087;SDS011;17745;55.914;37.554;2023-07-09T08:17:49;9.57;;;2.97;;
31087;SDS011;17745;55.914;37.554;2023-07-09T08:20:47;7.78;;;3.12;;
31087;SDS011;17745;55.914;37.554;2023-07-09T08:24:02;6.22;;;2.90;;
31087;SDS011;17745;55.914;37.554;2023-07-09T08:26:55;4.70;;;2.50;;
31087;SDS011;17745;55.914;37.554;2023-07-09T08:30:06;4.70;;;2.40;;
31087;SDS011;17745;55.914;37.554;2023-07-09T08:33:48;12.88;;;2.95;;
31087;SDS011;17745;55.914;37.554;2023-07-09T08:36:58;5.62;;;2.72;;
31087;SDS011;17745;55.914;37.554;2023-07-09T08:40:27;10.48;;;3.50;;
31087;SDS011;17745;55.914;37.554;2023-07-09T08:43:50;11.48;;;2.70;;
31087;SDS011;17745;55.914;37.554;2023-07-09T08:53:57;6.25;;;2.50;;
31087;SDS011;17745;55.914;37.554;2023-07-09T08:57:48;4.57;;;2.25;;
31087;SDS011;17745;55.914;37.554;2023-07-09T09:01:56;6.15;;;2.50;;
31087;SDS011;17745;55.914;37.554;2023-07-09T09:04:41;4.18;;;2.33;;
31087;SDS011;17745;55.914;37.554;2023-07-09T09:07:53;4.10;;;2.20;;
31087;SDS011;17745;55.914;37.554;2023-07-09T09:11:39;5.93;;;2.60;;
31087;SDS011;17745;55.914;37.554;2023-07-09T09:16:32;3.78;;;2.15;;
31087;SDS011;17745;55.914;37.554;2023-07-09T09:18:43;6.37;;;2.45;;
31087;SDS011;17745;55.914;37.554;2023-07-09T09:21:49;7.25;;;3.17;;
31087;SDS011;17745;55.914;37.554;2023-07-09T09:28:49;5.05;;;2.50;;
31087;SDS011;17745;55.914;37.554;2023-07-09T10:04:52;7.43;;;2.25;;
31087;SDS011;17745;55.914;37.554;2023-07-09T10:07:31;4.50;;;2.20;;
31087;SDS011;17745;55.914;37.554;2023-07-09T10:10:38;5.22;;;3.00;;
31087;SDS011;17745;55.914;37.554;2023-07-09T10:28:58;12.98;;;3.08;;
31087;SDS011;17745;55.914;37.554;2023-07-09T10:32:34;6.18;;;3.20;;
31087;SDS011;17745;55.914;37.554;2023-07-09T10:36:41;7.53;;;2.75;;
31087;SDS011;17745;55.914;37.554;2023-07-09T13:20:41;3.03;;;2.00;;
31087;SDS011;17745;55.914;37.554;2023-07-09T13:27:26;7.03;;;2.50;;
31087;SDS011;17745;55.914;37.554;2023-07-09T13:34:27;6.72;;;2.40;;
31087;SDS011;17745;55.914;37.554;2023-07-09T13:45:48;5.78;;;2.30;;
